Time;durP1;ratioP1;P1;durP2;ratioP2;P2;SDS_P1;SDS_P2;PMS_P1;PMS_P2;Temp;Humidity;BMP_temperature;BMP_pressure;BME280_temperature;BME280_humidity;BME280_pressure;Samples;Min_cycle;Max_cycle;Signal;HPM_P1;HPM_P2
2022/05/28 00:01:11;;;;;;;16.50;2.28;;;;;;;-144.47;47.97;53314.91;5011477;28;20062;-72
2022/05/28 00:03:37;;;;;;;14.65;1.85;;;;;;;-144.47;48.14;53338.75;5006485;28;20069;-73
2022/05/28 00:06:03;;;;;;;11.52;2.13;;;;;;;-144.47;48.19;53330.81;5003308;28;20033;-72
2022/05/28 00:08:28;;;;;;;8.25;1.50;;;;;;;-144.47;48.13;53368.56;5011332;28;20338;-71
2022/05/28 00:10:57;;;;;;;21.85;2.05;;;;;;;-144.47;48.18;53324.84;5011852;28;20061;-71
2022/05/28 00:13:23;;;;;;;10.35;1.58;;;;;;;-144.47;48.14;53334.78;5011050;28;20508;-72
2022/05/28 00:15:49;;;;;;;9.95;2.03;;;;;;;-144.47;48.30;53324.84;5011400;28;20053;-70
2022/05/28 00:18:14;;;;;;;14.85;1.63;;;;;;;-144.47;48.33;53295.06;5026613;28;20033;-69
2022/05/28 00:20:40;;;;;;;10.07;2.08;;;;;;;-144.47;48.44;53338.75;5011250;28;20187;-70
2022/05/28 00:23:05;;;;;;;11.55;2.03;;;;;;;-144.47;48.44;53305.00;5011245;28;20079;-70
2022/05/28 00:25:31;;;;;;;10.27;1.60;;;;;;;-144.47;48.59;53334.78;5011269;28;20108;-70
2022/05/28 00:27:56;;;;;;;5.43;1.90;;;;;;;-144.47;48.49;53295.06;5011028;28;20116;-71
2022/05/28 00:30:22;;;;;;;23.85;2.35;;;;;;;-144.47;48.61;53342.72;5010896;28;20104;-70
2022/05/28 00:32:47;;;;;;;6.47;1.40;;;;;;;-144.47;48.81;53338.75;5011791;28;20095;-69
2022/05/28 00:35:18;;;;;;;10.93;2.20;;;;;;;-144.47;49.03;53320.88;5011080;28;20088;-71
2022/05/28 00:37:45;;;;;;;12.18;1.88;;;;;;;-144.47;49.02;53295.06;5009591;28;20076;-70
2022/05/28 00:40:20;;;;;;;11.23;1.67;;;;;;;-144.47;49.14;53320.88;5011170;28;20442;-72
2022/05/28 00:42:45;;;;;;;6.18;1.40;;;;;;;-144.47;49.16;53303.00;4997870;28;20033;-67
2022/05/28 00:45:11;;;;;;;10.32;1.38;;;;;;;-144.47;49.40;53340.75;5011312;28;20049;-71
2022/05/28 00:47:42;;;;;;;8.30;1.50;;;;;;;-144.47;49.44;53324.84;5010970;28;20440;-70
2022/05/28 00:50:08;;;;;;;11.90;1.70;;;;;;;-144.47;49.71;53287.13;5010686;28;20026;-68
2022/05/28 00:52:34;;;;;;;13.60;2.03;;;;;;;-144.47;49.93;53334.78;5010917;28;20025;-71
2022/05/28 00:54:59;;;;;;;4.50;1.05;;;;;;;-144.47;49.92;53338.75;5027939;28;20115;-69
2022/05/28 00:57:26;;;;;;;15.90;2.08;;;;;;;-144.47;49.93;53320.88;5031580;28;20053;-70
2022/05/28 00:59:52;;;;;;;8.77;1.50;;;;;;;-144.47;50.28;53330.81;5022854;28;20080;-69
2022/05/28 01:02:38;;;;;;;6.28;2.22;;;;;;;-144.47;50.38;53358.63;5010614;28;20133;-70
2022/05/28 01:05:11;;;;;;;7.65;1.38;;;;;;;-144.47;50.17;53312.94;5031380;22;20049;-72
2022/05/28 01:07:49;;;;;;;9.80;1.35;;;;;;;-144.47;50.21;53320.88;5031630;28;20021;-69
2022/05/28 01:10:41;;;;;;;10.60;1.50;;;;;;;-144.47;50.08;53289.09;5029374;28;20374;-70
2022/05/28 01:13:17;;;;;;;9.77;1.52;;;;;;;-144.47;50.33;53350.69;5031309;28;20171;-68
2022/05/28 01:16:08;;;;;;;5.78;1.30;;;;;;;-144.47;50.53;53346.72;5026308;28;20053;-69
2022/05/28 01:18:49;;;;;;;14.75;2.03;;;;;;;-144.47;50.60;53322.88;5011963;28;20477;-69
2022/05/28 01:21:40;;;;;;;7.47;1.55;;;;;;;-144.47;50.65;53352.66;5010840;28;20272;-69
2022/05/28 01:24:13;;;;;;;10.63;1.92;;;;;;;-144.47;50.55;53299.03;4987796;28;20065;-68
2022/05/28 01:26:52;;;;;;;6.15;1.55;;;;;;;-144.47;50.54;53324.84;5011283;28;20033;-69
2022/05/28 01:29:20;;;;;;;9.00;1.50;;;;;;;-144.47;50.49;53346.72;5010443;28;20030;-68
2022/05/28 01:31:47;;;;;;;11.02;1.80;;;;;;;-144.47;50.47;53305.00;5011372;28;20022;-70
2022/05/28 01:34:14;;;;;;;9.13;1.52;;;;;;;-144.47;50.58;53330.81;5011304;28;20290;-72
2022/05/28 01:36:41;;;;;;;13.20;3.30;;;;;;;-144.47;50.51;53346.72;5011483;28;20026;-66
2022/05/28 01:39:07;;;;;;;7.18;1.30;;;;;;;-144.47;50.65;53312.94;5010854;28;20157;-69
2022/05/28 01:41:35;;;;;;;9.55;2.58;;;;;;;-144.47;50.86;53316.91;5011094;28;20137;-70
2022/05/28 01:44:03;;;;;;;9.37;1.97;;;;;;;-144.47;51.01;53328.81;5011146;28;20065;-67
2022/05/28 01:46:32;;;;;;;14.82;2.33;;;;;;;-144.47;51.07;53310.94;5010962;28;20217;-69
2022/05/28 01:48:58;;;;;;;7.80;1.85;;;;;;;-144.47;50.98;53308.97;5009793;28;20022;-69
2022/05/28 01:51:27;;;;;;;12.35;2.15;;;;;;;-144.47;51.17;53356.63;5010443;28;20033;-69
2022/05/28 01:54:11;;;;;;;9.98;1.98;;;;;;;-144.47;51.37;53330.81;5010882;28;20112;-69
2022/05/28 01:56:42;;;;;;;10.98;2.17;;;;;;;-144.47;51.71;53342.72;5010838;28;20030;-71
2022/05/28 01:59:07;;;;;;;11.05;2.00;;;;;;;-144.47;51.73;53340.75;5010945;28;20505;-69
2022/05/28 02:01:33;;;;;;;9.65;1.88;;;;;;;-144.47;51.82;53320.88;5011168;28;20065;-68
2022/05/28 02:04:04;;;;;;;10.60;2.03;;;;;;;-144.47;51.79;53350.69;5010904;28;20040;-69
2022/05/28 02:06:29;;;;;;;3.85;0.98;;;;;;;-144.47;52.15;53295.06;5010517;28;20026;-68
2022/05/28 02:08:55;;;;;;;8.27;1.38;;;;;;;-144.47;51.95;53289.09;5009085;28;20080;-68
2022/05/28 02:11:33;;;;;;;9.32;1.40;;;;;;;-144.47;52.25;53332.81;5010741;28;20026;-67
2022/05/28 02:14:08;;;;;;;4.53;1.50;;;;;;;-144.47;52.30;53350.69;5010386;28;20032;-69
2022/05/28 02:16:48;;;;;;;11.45;2.13;;;;;;;-144.47;52.46;53372.53;5010200;28;20034;-69
2022/05/28 02:19:26;;;;;;;9.35;1.38;;;;;;;-144.47;52.56;53358.63;5025154;28;20026;-69
2022/05/28 02:22:03;;;;;;;7.40;1.25;;;;;;;-144.47;52.63;53322.88;5010863;28;20026;-68
2022/05/28 02:24:36;;;;;;;6.65;1.27;;;;;;;-144.47;52.55;53320.88;5010558;28;20446;-70
2022/05/28 02:27:08;;;;;;;12.73;2.00;;;;;;;-144.47;52.51;53342.72;5009717;28;20113;-65
2022/05/28 02:29:33;;;;;;;5.90;1.05;;;;;;;-144.47;52.60;53348.69;5009446;28;20026;-68
2022/05/28 02:31:59;;;;;;;11.23;1.67;;;;;;;-144.47;52.76;53372.53;5010229;28;20033;-70
2022/05/28 02:34:24;;;;;;;8.52;1.80;;;;;;;-144.47;53.07;53338.75;5009045;28;20041;-69
2022/05/28 02:36:50;;;;;;;7.65;1.40;;;;;;;-144.47;52.89;53360.63;5010029;28;20022;-67
2022/05/28 02:39:15;;;;;;;2.63;1.00;;;;;;;-144.47;53.11;53334.78;5009873;28;20473;-68
2022/05/28 02:41:40;;;;;;;9.98;1.65;;;;;;;-144.47;53.14;53370.53;5010436;28;20041;-67
2022/05/28 02:44:06;;;;;;;7.88;1.42;;;;;;;-144.47;53.38;53358.63;5007976;28;20120;-69
2022/05/28 02:46:32;;;;;;;13.30;2.03;;;;;;;-144.47;53.51;53334.78;5008430;28;20025;-69
2022/05/28 02:48:58;;;;;;;12.63;1.67;;;;;;;-144.47;53.33;53324.84;5009063;28;20104;-68
2022/05/28 02:51:23;;;;;;;11.38;1.67;;;;;;;-144.47;53.40;53346.72;5009657;28;20424;-65
2022/05/28 02:53:51;;;;;;;12.35;1.85;;;;;;;-144.47;53.48;53342.72;5009901;28;20029;-68
2022/05/28 02:56:17;;;;;;;7.65;1.60;;;;;;;-144.47;53.47;53362.59;5009823;28;20036;-68
2022/05/28 02:58:42;;;;;;;16.83;1.80;;;;;;;-144.47;53.58;53352.66;5009539;28;20037;-66
2022/05/28 03:01:28;;;;;;;11.77;2.28;;;;;;;-144.47;53.73;53340.75;5009757;28;20034;-69
2022/05/28 03:03:54;;;;;;;8.55;1.65;;;;;;;-144.47;53.83;53336.78;5011933;28;20021;-66
2022/05/28 03:06:20;;;;;;;12.63;2.17;;;;;;;-144.47;53.82;53342.72;5009012;28;20077;-70
2022/05/28 03:08:46;;;;;;;11.75;1.73;;;;;;;-144.47;54.11;53356.63;5008374;28;20508;-68
2022/05/28 03:11:11;;;;;;;11.52;1.65;;;;;;;-144.47;54.26;53344.72;5009973;28;20033;-69
2022/05/28 03:13:37;;;;;;;14.07;1.75;;;;;;;-144.47;54.14;53344.72;5008070;28;20058;-67
2022/05/28 03:16:04;;;;;;;6.60;1.50;;;;;;;-144.47;54.35;53328.81;5009808;28;20026;-69
2022/05/28 03:18:29;;;;;;;13.85;2.13;;;;;;;-144.47;54.37;53356.63;5009695;28;20488;-66
2022/05/28 03:20:54;;;;;;;12.82;2.25;;;;;;;-144.47;54.24;53344.72;5009508;28;20034;-70
2022/05/28 03:23:20;;;;;;;8.63;1.30;;;;;;;-144.47;54.14;53368.56;5009653;28;20112;-69
2022/05/28 03:25:45;;;;;;;18.73;1.50;;;;;;;-144.47;54.21;53326.84;5009244;28;20160;-66
2022/05/28 03:28:10;;;;;;;8.65;1.67;;;;;;;-144.47;54.53;53392.41;5009714;28;20022;-70
2022/05/28 03:30:35;;;;;;;8.32;1.50;;;;;;;-144.47;54.36;53324.84;5008159;28;20026;-69
2022/05/28 03:33:02;;;;;;;10.45;1.98;;;;;;;-144.47;54.36;53322.88;5010042;28;20156;-69
2022/05/28 03:35:27;;;;;;;7.72;1.50;;;;;;;-144.47;54.28;53362.59;5008875;28;20029;-67
2022/05/28 03:37:52;;;;;;;7.05;1.42;;;;;;;-144.47;54.50;53322.88;5009324;28;20409;-67
2022/05/28 03:40:18;;;;;;;8.77;1.65;;;;;;;-144.47;54.32;53350.69;5009527;28;20041;-71
2022/05/28 03:42:43;;;;;;;9.95;1.23;;;;;;;-144.47;54.42;53360.63;5009642;28;20087;-68
2022/05/28 03:45:10;;;;;;;10.77;1.85;;;;;;;-144.47;54.57;53344.72;5008128;28;20366;-67
2022/05/28 03:47:35;;;;;;;7.97;1.30;;;;;;;-144.47;54.80;53318.91;5009194;28;20030;-67
2022/05/28 03:50:01;;;;;;;8.02;1.48;;;;;;;-144.47;55.47;53354.66;5008834;28;20477;-71
2022/05/28 03:52:27;;;;;;;17.13;2.35;;;;;;;-144.47;56.86;53356.63;5009023;28;20084;-68
2022/05/28 03:54:52;;;;;;;8.68;1.60;;;;;;;-144.47;58.36;53326.84;5009282;28;20046;-67
2022/05/28 03:57:23;;;;;;;9.20;1.98;;;;;;;-144.47;59.18;53356.63;5009701;28;20055;-68
2022/05/28 03:59:49;;;;;;;8.63;1.88;;;;;;;-144.47;59.26;53390.41;5008820;28;20029;-69
2022/05/28 04:02:14;;;;;;;10.70;1.70;;;;;;;-144.47;59.77;53364.59;5009540;28;20045;-65
2022/05/28 04:04:39;;;;;;;7.97;1.45;;;;;;;-144.47;59.86;53342.72;5009749;28;20502;-70
2022/05/28 04:07:05;;;;;;;9.23;1.50;;;;;;;-144.47;60.09;53398.34;4996475;28;20033;-68
2022/05/28 04:09:31;;;;;;;10.10;1.45;;;;;;;-144.47;60.74;53340.75;5009332;28;20555;-70
2022/05/28 04:11:56;;;;;;;6.53;1.27;;;;;;;-144.47;60.69;53320.88;5012394;28;20030;-70
2022/05/28 04:14:21;;;;;;;10.48;1.55;;;;;;;-144.47;60.48;53402.31;5013714;28;20021;-69
2022/05/28 04:16:47;;;;;;;11.60;2.30;;;;;;;-144.47;60.89;53354.66;5015476;28;20121;-70
2022/05/28 04:19:12;;;;;;;12.55;1.92;;;;;;;-144.47;61.29;53344.72;5014395;28;20116;-67
2022/05/28 04:21:37;;;;;;;16.38;3.17;;;;;;;-144.47;61.90;53394.38;5013503;28;20713;-70
2022/05/28 04:24:04;;;;;;;13.07;3.17;;;;;;;-144.47;64.19;53350.69;5013109;28;20038;-67
2022/05/28 04:26:29;;;;;;;8.25;1.73;;;;;;;-144.47;66.86;53386.44;5011104;28;20076;-68
2022/05/28 04:28:54;;;;;;;9.38;1.73;;;;;;;-144.47;69.30;53380.47;5012406;28;20038;-69
2022/05/28 04:31:20;;;;;;;10.80;1.67;;;;;;;-144.47;69.72;53404.31;5012403;28;20096;-70
2022/05/28 04:33:45;;;;;;;3.08;1.13;;;;;;;-144.47;69.87;53364.59;5012411;28;20030;-69
2022/05/28 04:36:11;;;;;;;10.75;1.60;;;;;;;-144.47;71.80;53372.53;5012230;28;20333;-66
2022/05/28 04:38:36;;;;;;;5.95;1.33;;;;;;;-144.47;70.96;53390.41;5012093;28;20029;-68
2022/05/28 04:41:01;;;;;;;6.47;1.05;;;;;;;-144.47;70.02;53406.31;5011803;28;20030;-67
2022/05/28 04:43:26;;;;;;;3.05;1.15;;;;;;;-144.47;70.87;53392.41;5012419;28;20078;-70
2022/05/28 04:45:52;;;;;;;6.63;1.35;;;;;;;-144.47;70.61;53384.44;5012062;28;20025;-71
2022/05/28 04:48:17;;;;;;;2.70;0.95;;;;;;;-144.47;70.51;53384.44;5012076;28;20470;-69
2022/05/28 04:50:42;;;;;;;5.15;1.20;;;;;;;-144.47;72.45;53410.28;5010845;28;20097;-68
2022/05/28 04:53:08;;;;;;;4.63;1.70;;;;;;;-144.47;71.74;53368.56;5010071;28;20039;-67
2022/05/28 04:55:33;;;;;;;6.20;1.23;;;;;;;-144.47;71.17;53400.34;5012239;28;20108;-71
2022/05/28 04:57:58;;;;;;;5.28;1.10;;;;;;;-144.47;70.98;53378.50;5011979;28;20198;-68
2022/05/28 05:00:26;;;;;;;11.13;1.10;;;;;;;-144.47;71.65;53404.31;5011969;28;20531;-70
2022/05/28 05:02:51;;;;;;;3.92;1.55;;;;;;;-144.47;70.61;53400.34;5012059;28;20053;-68
2022/05/28 05:05:17;;;;;;;2.28;1.17;;;;;;;-144.47;71.23;53396.38;5010141;28;20034;-68
2022/05/28 05:07:42;;;;;;;4.90;1.10;;;;;;;-144.47;71.35;53394.38;5011735;28;20026;-69
2022/05/28 05:10:09;;;;;;;3.95;1.23;;;;;;;-144.47;69.86;53424.19;5009935;28;20101;-69
2022/05/28 05:12:34;;;;;;;2.80;1.00;;;;;;;-144.47;69.17;53392.41;5011592;28;20022;-71
2022/05/28 05:15:00;;;;;;;10.00;1.70;;;;;;;-144.47;69.99;53422.19;5011052;28;20025;-67
2022/05/28 05:17:25;;;;;;;2.65;1.00;;;;;;;-144.47;70.12;53424.19;5011361;28;20478;-67
2022/05/28 05:19:52;;;;;;;5.47;1.48;;;;;;;-144.47;69.95;53356.63;5011185;28;20034;-71
2022/05/28 05:22:17;;;;;;;9.50;1.20;;;;;;;-144.47;70.04;53418.22;5011662;28;20041;-68
2022/05/28 05:24:43;;;;;;;6.93;1.33;;;;;;;-144.47;70.07;53396.38;5010809;28;20537;-71
2022/05/28 05:27:09;;;;;;;4.95;1.38;;;;;;;-144.47;71.16;53386.44;5007975;28;20061;-68
2022/05/28 05:29:34;;;;;;;8.25;1.63;;;;;;;-144.47;71.00;53374.50;5002870;28;20113;-70
2022/05/28 05:32:00;;;;;;;13.38;1.58;;;;;;;-144.47;71.31;53392.41;5001945;28;20125;-70
2022/05/28 05:34:25;;;;;;;8.90;1.70;;;;;;;-144.47;70.29;53380.47;5004277;28;20029;-69
2022/05/28 05:36:51;;;;;;;5.72;1.30;;;;;;;-144.47;68.17;53408.28;5004575;28;20466;-67
2022/05/28 05:39:16;;;;;;;6.65;1.42;;;;;;;-144.47;67.59;53406.31;5003182;28;20037;-69
2022/05/28 05:41:43;;;;;;;3.30;0.93;;;;;;;-144.47;66.61;53372.53;5002068;28;20041;-71
2022/05/28 05:44:09;;;;;;;6.72;1.15;;;;;;;-144.47;66.60;53400.34;5004100;28;20037;-67
2022/05/28 05:46:37;;;;;;;5.20;1.17;;;;;;;-144.47;66.71;53358.63;5004264;28;20205;-68
2022/05/28 05:49:04;;;;;;;11.40;1.67;;;;;;;-144.47;67.23;53398.34;5004173;28;20022;-68
2022/05/28 05:51:29;;;;;;;5.88;1.15;;;;;;;-144.47;65.15;53362.59;5001114;28;20654;-69
2022/05/28 05:53:55;;;;;;;6.18;2.15;;;;;;;-144.47;64.52;53418.22;5005515;28;20029;-68
2022/05/28 05:56:20;;;;;;;4.70;1.02;;;;;;;-144.47;63.22;53404.31;5005416;28;20053;-69
2022/05/28 05:58:45;;;;;;;3.60;1.20;;;;;;;-144.47;63.05;53338.75;5005013;28;20058;-70
2022/05/28 06:01:11;;;;;;;7.25;1.48;;;;;;;-144.47;61.76;53362.59;5010256;28;20153;-67
2022/05/28 06:03:38;;;;;;;3.33;0.80;;;;;;;-144.47;62.02;53376.50;5011183;28;20037;-69
2022/05/28 06:06:05;;;;;;;8.10;1.27;;;;;;;-144.47;61.47;53366.56;5008569;28;20026;-69
2022/05/28 06:08:31;;;;;;;6.63;1.45;;;;;;;-144.47;61.41;53356.63;5010945;28;20057;-66
2022/05/28 06:10:56;;;;;;;6.40;1.10;;;;;;;-144.47;61.10;53400.34;5011440;28;20053;-67
2022/05/28 06:13:22;;;;;;;4.13;1.00;;;;;;;-144.47;61.09;53376.50;5009495;28;20053;-67
2022/05/28 06:15:47;;;;;;;4.82;1.15;;;;;;;-144.47;59.15;53382.47;5004417;28;20041;-70
2022/05/28 06:18:13;;;;;;;6.63;1.08;;;;;;;-144.47;59.28;53350.69;5001861;28;20030;-68
2022/05/28 06:20:39;;;;;;;4.95;1.02;;;;;;;-144.47;59.12;53380.47;5033068;28;20067;-67
2022/05/28 06:23:05;;;;;;;5.60;1.00;;;;;;;-144.47;58.36;53372.53;5013399;28;20029;-69
2022/05/28 06:25:30;;;;;;;5.35;1.00;;;;;;;-144.47;55.54;53376.50;5010715;28;20101;-66
2022/05/28 06:27:55;;;;;;;4.70;1.10;;;;;;;-144.47;55.77;53368.56;5022309;28;20021;-71
2022/05/28 06:30:22;;;;;;;8.13;1.40;;;;;;;-144.47;55.62;53346.72;5010711;28;20022;-69
2022/05/28 06:32:47;;;;;;;8.32;1.88;;;;;;;-144.47;54.13;53320.88;5008959;28;20026;-69
2022/05/28 06:35:13;;;;;;;3.47;0.90;;;;;;;-144.47;54.43;53352.66;5000478;28;20688;-69
2022/05/28 06:37:38;;;;;;;5.50;1.00;;;;;;;-144.47;53.16;53316.91;5008899;28;20386;-67
2022/05/28 06:40:05;;;;;;;2.55;1.05;;;;;;;-144.47;51.90;53334.78;5008180;28;20026;-69
2022/05/28 06:42:30;;;;;;;7.97;1.60;;;;;;;-144.47;51.84;53358.63;5009950;28;20036;-69
2022/05/28 06:44:56;;;;;;;7.85;1.50;;;;;;;-144.47;50.31;53328.81;5002025;28;20025;-68
2022/05/28 06:47:22;;;;;;;10.35;1.95;;;;;;;-144.47;49.74;53384.44;5003960;28;20501;-69
2022/05/28 06:51:01;;;;;;;11.57;2.13;;;;;;;-144.47;50.08;53340.75;5006138;28;20493;-66
2022/05/28 06:52:33;;;;;;;7.93;1.50;;;;;;;-144.47;49.54;53301.03;5009268;28;20196;-69
2022/05/28 06:54:58;;;;;;;9.55;1.15;;;;;;;-144.47;49.60;53328.81;5009039;28;20134;-68
2022/05/28 06:57:23;;;;;;;11.02;1.92;;;;;;;-144.47;50.55;53328.81;5009405;28;20030;-68
2022/05/28 06:59:48;;;;;;;6.10;1.85;;;;;;;-144.47;49.53;53344.72;5006357;28;20505;-70
2022/05/28 07:02:14;;;;;;;5.70;1.67;;;;;;;-144.47;49.08;53346.72;5009957;28;20022;-68
2022/05/28 07:04:39;;;;;;;11.93;1.45;;;;;;;-144.47;48.94;53308.97;5009432;28;20022;-67
2022/05/28 07:07:05;;;;;;;10.57;1.10;;;;;;;-144.47;48.96;53356.63;5046542;22;20057;-64
2022/05/28 07:09:31;;;;;;;5.90;1.20;;;;;;;-144.47;49.35;53316.91;5003184;28;20485;-66
2022/05/28 07:11:56;;;;;;;12.43;2.05;;;;;;;-144.47;48.46;53303.00;5009616;28;20036;-68
2022/05/28 07:14:22;;;;;;;10.18;1.75;;;;;;;-144.47;48.49;53340.75;5009231;28;20029;-66
2022/05/28 07:16:47;;;;;;;8.00;1.48;;;;;;;-144.47;46.89;53340.75;5008539;28;20196;-66
2022/05/28 07:19:12;;;;;;;8.05;1.42;;;;;;;-144.47;46.92;53312.94;5008829;28;20046;-70
2022/05/28 07:21:37;;;;;;;9.70;1.75;;;;;;;-144.47;45.86;53306.97;5002815;28;20026;-68
2022/05/28 07:24:03;;;;;;;4.50;0.88;;;;;;;-144.47;45.79;53308.97;5007885;28;20057;-67
2022/05/28 07:26:28;;;;;;;11.48;1.75;;;;;;;-144.47;45.60;53297.03;5008843;28;20033;-67
2022/05/28 07:28:55;;;;;;;7.10;1.20;;;;;;;-144.47;45.19;53306.97;5009303;28;20527;-67
2022/05/28 07:31:21;;;;;;;10.70;1.77;;;;;;;-144.47;45.33;53285.13;5007651;28;20022;-69
2022/05/28 07:33:47;;;;;;;9.02;1.42;;;;;;;-144.47;44.68;53281.16;5009319;28;20022;-68
2022/05/28 07:36:16;;;;;;;12.45;1.40;;;;;;;-144.47;44.62;53271.22;5001284;28;20516;-68
2022/05/28 07:38:42;;;;;;;6.90;1.73;;;;;;;-144.47;44.17;53285.13;5009160;28;20037;-69
2022/05/28 07:41:12;;;;;;;7.57;1.95;;;;;;;-144.47;44.57;53283.13;5007468;28;20037;-67
2022/05/28 07:43:39;;;;;;;4.75;1.27;;;;;;;-144.47;44.94;53293.06;5009194;28;20300;-70
2022/05/28 07:46:16;;;;;;;7.78;1.52;;;;;;;-144.47;45.55;53303.00;5010438;28;20526;-69
2022/05/28 07:48:42;;;;;;;6.00;1.58;;;;;;;-144.47;46.17;53318.91;5012350;28;20081;-69
2022/05/28 07:51:07;;;;;;;10.13;1.25;;;;;;;-144.47;46.28;53249.38;5013341;28;20065;-70
2022/05/28 07:53:33;;;;;;;5.53;1.20;;;;;;;-144.47;45.22;53287.13;5013074;28;20030;-69
2022/05/28 07:56:03;;;;;;;8.95;1.33;;;;;;;-144.47;44.71;53245.41;5013345;28;20034;-68
2022/05/28 07:58:28;;;;;;;6.07;1.30;;;;;;;-144.47;45.12;53293.06;5012054;28;20036;-70
2022/05/28 08:00:53;;;;;;;8.43;1.30;;;;;;;-144.47;45.61;53312.94;5011715;28;20026;-70
2022/05/28 08:03:19;;;;;;;6.35;1.63;;;;;;;-144.47;45.35;53293.06;5012078;28;20492;-68
2022/05/28 08:05:48;;;;;;;2.30;0.85;;;;;;;-144.47;45.18;53269.22;5012800;28;20033;-70
2022/05/28 08:08:15;;;;;;;5.10;0.82;;;;;;;-144.47;44.42;53306.97;5012989;28;20033;-70
2022/05/28 08:10:40;;;;;;;5.35;1.55;;;;;;;-144.47;44.39;53273.22;5011535;28;20022;-69
2022/05/28 08:13:11;;;;;;;7.28;1.52;;;;;;;-144.47;43.79;53275.19;5011506;28;20033;-68
2022/05/28 08:15:39;;;;;;;11.98;1.42;;;;;;;-144.47;43.94;53257.31;5007138;28;20022;-68
2022/05/28 08:18:05;;;;;;;8.55;1.40;;;;;;;-144.47;43.51;53271.22;5012337;28;20026;-69
2022/05/28 08:23:15;;;;;;;4.78;1.50;;;;;;;-144.47;43.18;53281.16;5013168;28;20076;-68
2022/05/28 08:25:41;;;;;;;4.00;0.70;;;;;;;-144.47;42.48;53308.97;5012751;28;20485;-68
2022/05/28 08:28:10;;;;;;;6.72;1.10;;;;;;;-144.47;42.69;53269.22;5012513;28;20030;-69
2022/05/28 08:30:38;;;;;;;3.67;1.05;;;;;;;-144.47;42.50;53261.28;5011949;28;20024;-67
2022/05/28 08:33:03;;;;;;;6.03;1.00;;;;;;;-144.47;42.34;53301.03;5012131;28;20041;-70
2022/05/28 08:35:29;;;;;;;9.27;2.67;;;;;;;-144.47;42.46;53291.09;5012506;28;20056;-69
2022/05/28 08:37:54;;;;;;;8.13;1.17;;;;;;;-144.47;42.12;53312.94;5012321;28;20389;-69
2022/05/28 08:40:20;;;;;;;11.82;1.48;;;;;;;-144.47;41.38;53281.16;5010469;28;20021;-67
2022/05/28 08:42:46;;;;;;;5.13;1.10;;;;;;;-144.47;41.40;53289.09;5012533;28;20108;-68
2022/05/28 08:45:14;;;;;;;6.47;1.45;;;;;;;-144.47;41.02;53295.06;5013164;28;20070;-69
2022/05/28 08:47:43;;;;;;;4.32;1.20;;;;;;;-144.47;41.92;53269.22;5012519;28;20030;-66
2022/05/28 08:50:10;;;;;;;8.57;1.48;;;;;;;-144.47;41.55;53269.22;5011959;28;20045;-71
2022/05/28 08:53:08;;;;;;;6.75;1.27;;;;;;;-144.47;40.77;53241.44;5011857;28;20025;-68
2022/05/28 08:55:43;;;;;;;5.72;1.05;;;;;;;-144.47;40.56;53267.25;5012585;28;20100;-70
2022/05/28 08:58:13;;;;;;;6.65;1.40;;;;;;;-144.47;40.48;53285.13;5011128;28;20026;-71
2022/05/28 09:01:06;;;;;;;5.60;1.17;;;;;;;-144.47;40.52;53295.06;5012498;28;20021;-69
2022/05/28 09:03:49;;;;;;;10.00;1.23;;;;;;;-144.47;40.54;53281.16;5011448;28;20029;-68
2022/05/28 09:06:24;;;;;;;6.25;1.42;;;;;;;-144.47;40.33;53221.56;5012003;28;20252;-68
2022/05/28 09:08:53;;;;;;;11.20;1.50;;;;;;;-144.47;40.61;53219.56;5011526;28;20022;-68
2022/05/28 09:11:58;;;;;;;8.00;1.30;;;;;;;-144.47;41.00;53301.03;5012089;28;20018;-70
2022/05/28 09:14:27;;;;;;;13.40;1.38;;;;;;;-144.47;41.23;53241.44;5011102;28;20231;-70
2022/05/28 09:16:57;;;;;;;4.03;0.98;;;;;;;-144.47;41.64;53281.16;5011746;28;20026;-70
2022/05/28 09:19:30;;;;;;;5.32;1.27;;;;;;;-144.47;42.62;53269.22;5011202;28;20057;-70
2022/05/28 09:21:56;;;;;;;6.72;1.05;;;;;;;-144.47;42.70;53271.22;4999060;28;20037;-68
2022/05/28 09:24:25;;;;;;;8.05;1.05;;;;;;;-144.47;42.74;53255.34;5011654;28;20064;-68
2022/05/28 09:27:06;;;;;;;9.65;1.42;;;;;;;-144.47;43.12;53269.22;5011478;28;20420;-69
2022/05/28 09:29:34;;;;;;;3.95;1.02;;;;;;;-144.47;43.21;53301.03;5011274;28;20525;-67
2022/05/28 09:32:21;;;;;;;6.05;1.20;;;;;;;-144.47;42.23;53277.19;5011810;28;20030;-66
2022/05/28 09:35:07;;;;;;;7.32;1.10;;;;;;;-144.47;41.85;53249.38;5007581;28;20106;-67
2022/05/28 09:37:52;;;;;;;4.47;1.55;;;;;;;-144.47;41.74;53271.22;5021127;28;20512;-71
2022/05/28 09:40:25;;;;;;;5.68;1.60;;;;;;;-144.47;41.24;53299.03;5009490;28;20026;-68
2022/05/28 09:43:03;;;;;;;6.13;1.33;;;;;;;-144.47;41.26;53245.41;5011187;28;20558;-70
2022/05/28 09:45:44;;;;;;;5.45;1.40;;;;;;;-144.47;41.55;53253.34;5011218;28;20040;-69
2022/05/28 09:48:22;;;;;;;8.40;1.33;;;;;;;-144.47;41.24;53247.38;5010869;28;20083;-70
2022/05/28 09:50:47;;;;;;;12.38;1.30;;;;;;;-144.47;41.30;53308.97;5011020;28;20060;-66
2022/05/28 09:56:24;;;;;;;7.25;1.35;;;;;;;-144.47;41.75;53283.13;5011143;28;20041;-69
2022/05/28 09:58:50;;;;;;;6.75;1.00;;;;;;;-144.47;41.90;53316.91;5010404;28;20029;-68
2022/05/28 10:01:24;;;;;;;9.23;1.23;;;;;;;-144.47;41.57;53285.13;5011011;28;20076;-69
2022/05/28 10:07:04;;;;;;;7.00;2.03;;;;;;;-144.47;42.25;53245.41;5008492;28;20045;-67
2022/05/28 10:09:32;;;;;;;6.68;1.30;;;;;;;-144.47;41.72;53279.16;5009584;28;20452;-70
2022/05/28 10:11:59;;;;;;;4.00;1.40;;;;;;;-144.47;42.10;53257.31;5010343;28;20033;-69
2022/05/28 10:14:28;;;;;;;2.78;0.93;;;;;;;-144.47;41.23;53261.28;5009263;28;20033;-71
2022/05/28 10:16:56;;;;;;;5.70;1.15;;;;;;;-144.47;41.30;53235.47;5008376;28;20072;-68
2022/05/28 10:19:30;;;;;;;8.05;1.35;;;;;;;-144.47;41.27;53237.44;5009863;28;20036;-69
2022/05/28 10:21:59;;;;;;;4.28;0.90;;;;;;;-144.47;40.98;53279.16;4997357;28;20025;-69
2022/05/28 10:24:26;;;;;;;;;;;;;;;-144.47;41.38;53271.22;5011050;28;20017;-68
2022/05/28 10:26:57;;;;;;;8.00;1.30;;;;;;;-144.47;40.87;53269.22;5009893;28;19909;-68
2022/05/28 10:29:28;;;;;;;6.68;0.93;;;;;;;-144.47;40.86;53259.31;5009661;28;20033;-70
2022/05/28 10:31:57;;;;;;;6.15;0.70;;;;;;;-144.47;39.64;53243.41;5010202;28;20041;-68
2022/05/28 10:34:25;;;;;;;2.03;0.63;;;;;;;-144.47;39.67;53241.44;5009928;28;20581;-70
2022/05/28 10:36:50;;;;;;;5.30;1.02;;;;;;;-144.47;40.68;53227.53;5009890;28;20034;-68
2022/05/28 10:39:18;;;;;;;7.25;1.30;;;;;;;-144.47;40.77;53253.34;5009624;28;20064;-68
2022/05/28 10:41:49;;;;;;;7.05;1.35;;;;;;;-144.47;40.78;53275.19;5009770;28;20056;-70
2022/05/28 10:44:15;;;;;;;4.38;0.85;;;;;;;-144.47;41.40;53229.50;5010152;28;20029;-67
2022/05/28 10:46:59;;;;;;;4.13;1.30;;;;;;;-144.47;41.10;53253.34;5009658;28;20126;-69
2022/05/28 10:49:54;;;;;;;3.70;1.02;;;;;;;-144.47;40.68;53299.03;5009119;28;20037;-67
2022/05/28 10:52:56;;;;;;;7.65;1.20;;;;;;;-144.47;40.67;53251.34;4996467;28;20042;-70
2022/05/28 10:55:43;;;;;;;9.52;1.20;;;;;;;-144.47;39.46;53225.53;5010122;28;20083;-69
2022/05/28 10:58:32;;;;;;;2.95;1.00;;;;;;;-144.47;38.16;53259.31;5009360;28;20030;-68
2022/05/28 11:01:05;;;;;;;3.30;0.90;;;;;;;-144.47;37.81;53247.38;5009566;28;20030;-70
2022/05/28 11:03:51;;;;;;;4.88;1.05;;;;;;;-144.47;37.90;53239.44;5008757;28;20026;-68
2022/05/28 11:06:35;;;;;;;5.05;1.00;;;;;;;-144.47;38.40;53249.38;5009178;28;20032;-67
2022/05/28 11:09:15;;;;;;;7.93;1.00;;;;;;;-144.47;39.14;53265.25;5009680;28;20062;-69
2022/05/28 11:11:58;;;;;;;4.22;0.95;;;;;;;-144.47;39.61;53249.38;5009404;28;20021;-69
2022/05/28 11:15:01;;;;;;;4.80;0.80;;;;;;;-144.47;39.09;53247.38;5009784;28;20061;-67
2022/05/28 11:17:41;;;;;;;4.47;1.15;;;;;;;-144.47;38.23;53259.31;5010565;28;20050;-68
2022/05/28 11:20:34;;;;;;;7.00;0.98;;;;;;;-144.47;38.84;53259.31;5009382;28;20477;-67
2022/05/28 11:23:21;;;;;;;5.28;1.00;;;;;;;-144.47;38.32;53225.53;5008905;28;20056;-70
2022/05/28 11:25:58;;;;;;;3.88;1.17;;;;;;;-144.47;38.69;53263.28;5009693;28;20030;-70
2022/05/28 11:28:45;;;;;;;6.18;1.35;;;;;;;-144.47;39.14;53277.19;5009590;28;20483;-67
2022/05/28 11:31:43;;;;;;;8.73;1.42;;;;;;;-144.47;39.17;53255.34;5009872;28;20037;-69
2022/05/28 11:34:23;;;;;;;8.38;1.02;;;;;;;-144.47;39.28;53239.44;5005206;28;20116;-70